Data for 12/19/2009

Time Sea-Level Adjusted Pressure Absolute Pressure Temperature Relative Humidity Dew Point   
(mb) (inHg) (mb) (inHg) (C) (F) (%) (C) (F)
00:05 1023 30.21 852 25.16 -1.9 28.7 65 -7.7 18.2
00:10 1023 30.21 852 25.16 -1.7 28.9 64 -7.6 18.3
00:15 1023 30.21 852 25.16 -2.2 28 67 -7.5 18.5
00:20 1023 30.21 852 25.16 -2.1 28.2 67 -7.5 18.5
00:25 1023 30.21 852 25.16 -2.5 27.5 69 -7.5 18.5
00:30 1023 30.21 852 25.16 -2.7 27.2 69 -7.6 18.3
00:35 1023 30.21 852 25.16 -3.1 26.5 71 -7.6 18.4
00:40 1023 30.21 852 25.16 -3.4 26 71 -7.9 17.8
00:45 1023 30.21 852 25.16 -3.3 26.1 73 -7.4 18.6
00:50 1023 30.21 852 25.16 -3.1 26.4 70 -7.8 18
00:55 1023 30.21 852 25.16 -3.3 26 72 -7.8 18
01:00 1023 30.21 852 25.16 -3.6 25.5 73 -7.7 18.1
01:05 1023 30.21 852 25.16 -3.3 26.1 70 -8 17.7
01:10 1023 30.21 852 25.16 -3.1 26.4 71 -7.7 18.1
01:15 1023 30.21 852 25.16 -3.4 25.9 72 -7.8 17.9
01:20 1023 30.21 852 25.16 -3.3 26 71 -7.8 18
01:25 1023 30.21 852 25.16 -2.7 27.1 69 -7.6 18.3
01:30 1023 30.21 852 25.16 -2.7 27.2 69 -7.5 18.5
01:35 1023 30.21 852 25.16 -2.5 27.5 68 -7.6 18.3
01:40 1023 30.21 852 25.16 -2.9 26.8 70 -7.6 18.4
01:45 1023 30.21 852 25.16 -3.6 25.5 72 -8 17.5
01:50 1023 30.21 852 25.16 -4.5 23.9 75 -8.2 17.2
01:55 1023 30.21 852 25.16 -4.2 24.5 74 -8.1 17.4
02:00 1023 30.21 852 25.16 -3.3 26 71 -7.8 17.9
02:05 1023 30.21 852 25.16 -3 26.6 69 -7.9 17.8
02:10 1023 30.21 852 25.16 -2.8 26.9 69 -7.7 18.2
02:15 1023 30.21 852 25.16 -2.9 26.8 70 -7.7 18.1
02:20 1023 30.21 852 25.16 -2.6 27.4 68 -7.7 18.2
02:25 1023 30.21 852 25.16 -2.4 27.6 68 -7.5 18.4
02:30 1023 30.21 852 25.16 -2.4 27.6 68 -7.6 18.3
02:35 1023 30.21 852 25.16 -2.5 27.4 68 -7.7 18.2
02:40 1023 30.21 852 25.16 -2.8 26.9 70 -7.5 18.5
02:45 1023 30.21 852 25.16 -2.9 26.8 70 -7.5 18.4
02:50 1023 30.21 852 25.16 -2.9 26.8 71 -7.4 18.7
02:55 1023 30.21 852 25.16 -2.7 27.2 71 -7.2 19
03:00 1023 30.21 852 25.16 -2.8 27 71 -7.3 18.8
03:05 1022 30.18 852 25.16 -2.6 27.3 70 -7.4 18.6
03:10 1022 30.18 852 25.16 -3.1 26.3 72 -7.6 18.4
03:15 1022 30.18 852 25.16 -3.7 25.4 74 -7.7 18.2
03:20 1022 30.18 852 25.16 -3.8 25.2 73 -7.8 17.9
03:25 1022 30.18 852 25.16 -3.8 25.2 73 -7.9 17.7
03:30 1022 30.18 852 25.16 -3.7 25.3 74 -7.8 18
03:35 1022 30.18 852 25.16 -3.7 25.3 73 -7.9 17.7
03:40 1022 30.18 852 25.16 -4 24.7 75 -7.9 17.8
03:45 1022 30.18 852 25.16 -4.1 24.7 74 -8.1 17.5
03:50 1022 30.18 852 25.16 -4.7 23.6 77 -8.1 17.5
03:55 1022 30.18 851 25.13 -4.6 23.8 76 -8.1 17.4
04:00 1022 30.18 852 25.16 -4.3 24.3 76 -7.8 17.9
04:05 1022 30.18 852 25.16 -4.2 24.4 75 -8.1 17.5
04:10 1022 30.18 852 25.16 -4.4 24 75 -8.1 17.4
04:15 1023 30.21 852 25.16 -4.7 23.6 76 -8.2 17.3
04:20 1022 30.18 852 25.16 -4.7 23.6 77 -8.1 17.4
04:25 1022 30.18 852 25.16 -4.1 24.6 75 -7.9 17.7
04:30 1022 30.18 852 25.16 -4.5 24 77 -8 17.7
04:35 1022 30.18 852 25.16 -4.8 23.4 78 -8.1 17.5
04:40 1022 30.18 852 25.16 -4.7 23.6 78 -8 17.6
04:45 1022 30.18 852 25.16 -4.6 23.6 78 -8 17.6
04:50 1022 30.18 852 25.16 -4.8 23.3 78 -8.2 17.3
04:55 1022 30.18 852 25.16 -4.8 23.3 79 -7.9 17.8
05:00 1022 30.18 852 25.16 -4.6 23.6 78 -8 17.7
05:05 1022 30.18 851 25.13 -4.7 23.6 77 -8.1 17.4
05:10 1022 30.18 851 25.13 -4.9 23.3 79 -8 17.5
05:15 1022 30.18 851 25.13 -4.7 23.6 78 -8 17.6
05:20 1022 30.18 851 25.13 -4.2 24.4 77 -7.7 18.1
05:25 1022 30.18 851 25.13 -4 24.9 75 -7.8 18
05:30 1022 30.18 851 25.13 -4.1 24.7 75 -7.8 17.9
05:35 1022 30.18 851 25.13 -4.3 24.3 76 -8 17.7
05:40 1022 30.18 851 25.13 -4.5 24 77 -7.9 17.9
05:45 1022 30.18 851 25.13 -4.7 23.5 78 -7.9 17.8
05:50 1022 30.18 851 25.13 -4.7 23.6 78 -7.9 17.9
05:55 1022 30.18 851 25.13 -4.7 23.6 78 -7.9 17.7
06:00 1022 30.18 851 25.13 -4.9 23.2 79 -7.9 17.7
06:05 1022 30.18 851 25.13 -4.9 23.3 80 -7.9 17.9
06:10 1022 30.18 851 25.13 -5.1 22.9 80 -8 17.6
06:15 1022 30.18 851 25.13 -5.2 22.6 81 -8 17.5
06:20 1022 30.18 851 25.13 -4.9 23.2 81 -7.7 18.1
06:25 1022 30.18 851 25.13 -4.6 23.7 80 -7.5 18.4
06:30 1022 30.18 851 25.13 -4.7 23.6 79 -7.8 17.9
06:35 1021 30.15 851 25.13 -4.7 23.6 79 -7.7 18.1
06:40 1021 30.15 851 25.13 -4.6 23.8 79 -7.7 18.2
06:45 1021 30.15 851 25.13 -4.4 24.1 79 -7.5 18.5
06:50 1021 30.15 850 25.1 -4.3 24.2 79 -7.5 18.5
06:55 1021 30.15 850 25.1 -4.4 24.1 79 -7.5 18.5
07:00 1021 30.15 850 25.1 -4.5 23.8 80 -7.6 18.4
07:05 1021 30.15 850 25.1 -4.5 23.9 79 -7.6 18.3
07:10 1021 30.15 850 25.1 -4.4 24 79 -7.6 18.3
07:15 1021 30.15 850 25.1 -4.3 24.3 77 -7.7 18.1
07:20 1021 30.15 850 25.1 -3.9 24.9 76 -7.5 18.5
07:25 1021 30.15 850 25.1 -3.6 25.5 75 -7.3 18.8
07:30 1021 30.15 850 25.1 -3.1 26.3 73 -7.3 18.9
07:35 1021 30.15 850 25.1 -3.2 26.3 74 -7.2 19
07:40 1021 30.15 850 25.1 -3.3 26 73 -7.5 18.5
07:45 1021 30.15 850 25.1 -3.9 25.1 76 -7.5 18.4
07:50 1021 30.15 850 25.1 -3.9 25 76 -7.6 18.3
07:55 1021 30.15 850 25.1 -3.4 25.8 74 -7.5 18.5
08:00 1021 30.15 850 25.1 -3.1 26.5 72 -7.4 18.7
08:05 1021 30.15 851 25.13 -3 26.6 72 -7.3 18.8
08:10 1021 30.15 850 25.1 -3 26.6 72 -7.4 18.7
08:15 1021 30.15 850 25.1 -2.6 27.3 72 -6.9 19.6
08:20 1021 30.15 850 25.1 -2.9 26.7 74 -6.9 19.6
08:25 1021 30.15 850 25.1 -3.2 26.3 75 -7.1 19.3
08:30 1021 30.15 850 25.1 -3.5 25.8 76 -7.1 19.2
08:35 1021 30.15 850 25.1 -3.8 25.1 77 -7.4 18.7
08:40 1021 30.15 850 25.1 -4.2 24.5 78 -7.4 18.7
08:45 1021 30.15 850 25.1 -3.7 25.3 76 -7.4 18.6
08:50 1021 30.15 850 25.1 -3.2 26.2 74 -7.3 18.9
08:55 1021 30.15 850 25.1 -3.4 25.9 74 -7.4 18.7
09:00 1021 30.15 850 25.1 -3.3 26 74 -7.3 18.8
09:05 1021 30.15 850 25.1 -3 26.6 72 -7.3 18.9
09:10 1021 30.15 850 25.1 -2.9 26.8 72 -7.2 19
09:15 1021 30.15 850 25.1 -2.9 26.8 73 -7.2 19.1
09:20 1021 30.15 850 25.1 -2.8 27 72 -7.1 19.2
09:25 1021 30.15 850 25.1 -2.4 27.6 71 -7.1 19.2
09:30 1021 30.15 850 25.1 -2.2 28 69 -7.1 19.3
09:35 1021 30.15 850 25.1 -1.9 28.5 68 -7.1 19.2
09:40 1021 30.15 850 25.1 -1.9 28.5 68 -7 19.4
09:45 1021 30.15 850 25.1 -2.1 28.3 69 -7.1 19.2
09:50 1021 30.15 850 25.1 -1.8 28.7 67 -7.2 19.1
09:55 1021 30.15 850 25.1 -1.5 29.3 66 -7 19.3
10:00 1021 30.15 850 25.1 -1.3 29.6 65 -7 19.3
10:05 1021 30.15 850 25.1 -0.8 30.5 64 -6.9 19.6
10:10 1021 30.15 850 25.1 -0.1 31.8 61 -6.9 19.7
10:15 1021 30.15 850 25.1 -0.1 31.8 62 -6.5 20.2
10:20 1021 30.15 850 25.1 -0.2 31.6 63 -6.4 20.5
10:25 1021 30.15 850 25.1 -0.2 31.7 63 -6.5 20.4
10:30 1021 30.15 850 25.1 0.1 32.1 62 -6.4 20.5
10:35 1021 30.15 850 25.1 0.3 32.6 62 -6.2 20.9
10:40 1021 30.15 850 25.1 0.5 32.9 63 -5.8 21.5
10:45 1021 30.15 850 25.1 0.8 33.4 59 -6.4 20.5
10:50 1021 30.15 850 25.1 1 33.8 61 -5.6 21.8
10:55 1021 30.15 850 25.1 1 33.9 60 -5.8 21.6
11:00 1020 30.12 850 25.1 1.2 34.1 60 -5.7 21.8
11:05 1020 30.12 850 25.1 1.3 34.4 58 -6.1 21
11:10 1020 30.12 850 25.1 1.1 33.9 59 -6.1 21
11:15 1020 30.12 849 25.07 0.8 33.4 60 -6.1 21
11:20 1020 30.12 849 25.07 0.9 33.7 59 -6.3 20.7
11:25 1020 30.12 849 25.07 0.9 33.6 58 -6.4 20.5
11:30 1020 30.12 849 25.07 0.9 33.6 59 -6.2 20.8
11:35 1020 30.12 849 25.07 1 33.8 58 -6.2 20.8
11:40 1020 30.12 849 25.07 1.5 34.6 59 -5.7 21.7
11:45 1020 30.12 849 25.07 1.6 34.9 57 -6.1 21.1
11:50 1020 30.12 849 25.07 1.7 35.1 56 -6.1 21
11:55 1020 30.12 849 25.07 2.1 35.7 54 -6.2 20.8
12:00 1020 30.12 849 25.07 2 35.6 54 -6.3 20.7
12:05 1020 30.12 849 25.07 2.1 35.8 54 -6.2 20.9
12:10 1020 30.12 849 25.07 2.8 37 53 -6 21.3
12:15 1020 30.12 849 25.07 3.1 37.6 52 -5.9 21.4
12:20 1020 30.12 849 25.07 3.3 37.9 50 -6.1 21.1
12:25 1020 30.12 849 25.07 3.3 38 51 -5.9 21.4
12:30 1020 30.12 849 25.07 2.6 36.6 53 -6.2 20.9
12:35 1020 30.12 849 25.07 2.5 36.5 54 -6 21.2
12:40 1020 30.12 849 25.07 2.6 36.6 53 -6 21.1
12:45 1019 30.09 849 25.07 2.7 36.8 53 -6.1 21.1
12:50 1019 30.09 849 25.07 2.7 36.8 55 -5.5 22
12:55 1019 30.09 849 25.07 2.6 36.7 53 -6 21.3
13:00 1019 30.09 848 25.04 2.7 36.8 53 -5.9 21.4
13:05 1019 30.09 848 25.04 2.8 37.1 52 -6 21.2
13:10 1019 30.09 848 25.04 3.1 37.5 54 -5.5 22.2
13:15 1019 30.09 848 25.04 3.3 37.9 52 -5.8 21.6
13:20 1019 30.09 848 25.04 3 37.4 54 -5.4 22.3
13:25 1019 30.09 848 25.04 3 37.4 56 -4.8 23.3
13:30 1019 30.09 848 25.04 2.5 36.6 59 -4.7 23.5
13:35 1019 30.09 848 25.04 2.6 36.6 58 -4.9 23.2
13:40 1019 30.09 848 25.04 2.8 37.1 55 -5.3 22.5
13:45 1019 30.09 848 25.04 2.8 37 57 -5 23.1
13:50 1019 30.09 848 25.04 2.8 37.1 58 -4.7 23.6
13:55 1019 30.09 848 25.04 2.6 36.7 60 -4.4 24.1
14:00 1019 30.09 848 25.04 2.5 36.6 59 -4.6 23.7
14:05 1019 30.09 848 25.04 2.5 36.5 57 -5.2 22.7
14:10 1019 30.09 848 25.04 2.3 36.1 56 -5.6 21.9
14:15 1019 30.09 848 25.04 2.2 36 58 -5.2 22.6
14:20 1019 30.09 848 25.04 2.3 36.2 58 -5.1 22.8
14:25 1019 30.09 848 25.04 2.5 36.5 56 -5.3 22.4
14:30 1019 30.09 848 25.04 2.3 36.2 58 -5.1 22.9
14:35 1019 30.09 848 25.04 2.1 35.8 59 -5 23
14:40 1019 30.09 848 25.04 1.9 35.4 59 -5.2 22.6
14:45 1019 30.09 848 25.04 1.9 35.4 59 -5.2 22.6
14:50 1019 30.09 848 25.04 1.8 35.3 61 -4.9 23.2
14:55 1019 30.09 848 25.04 1.9 35.5 60 -5 23.1
15:00 1019 30.09 848 25.04 1.7 35.1 60 -5.1 22.8
15:05 1019 30.09 848 25.04 1.6 35 61 -5.2 22.7
15:10 1019 30.09 848 25.04 1.7 35 58 -5.7 21.7
15:15 1019 30.09 848 25.04 1.8 35.2 59 -5.4 22.2
15:20 1019 30.09 848 25.04 1.9 35.5 59 -5.3 22.5
15:25 1019 30.09 848 25.04 2 35.5 60 -5 22.9
15:30 1019 30.09 848 25.04 2 35.6 58 -5.4 22.3
15:35 1019 30.09 848 25.04 2 35.6 58 -5.4 22.2
15:40 1019 30.09 848 25.04 1.9 35.4 59 -5.4 22.3
15:45 1019 30.09 848 25.04 1.8 35.2 59 -5.3 22.4
15:50 1019 30.09 848 25.04 1.8 35.2 59 -5.4 22.3
15:55 1019 30.09 848 25.04 2 35.5 57 -5.6 22
16:00 1019 30.09 848 25.04 2.2 36 57 -5.4 22.3
16:05 1019 30.09 848 25.04 2.3 36.1 57 -5.4 22.3
16:10 1019 30.09 848 25.04 2.3 36.1 57 -5.4 22.2
16:15 1019 30.09 848 25.04 2.3 36.1 58 -5.1 22.8
16:20 1019 30.09 848 25.04 2.2 35.9 58 -5.1 22.8
16:25 1019 30.09 848 25.04 2.2 35.9 60 -4.9 23.2
16:30 1019 30.09 848 25.04 2.2 36 57 -5.5 22.1
16:35 1019 30.09 848 25.04 2.2 35.9 58 -5.3 22.4
16:40 1019 30.09 848 25.04 2.1 35.9 58 -5.2 22.6
16:45 1019 30.09 848 25.04 2.2 36 57 -5.3 22.4
16:50 1019 30.09 848 25.04 2.4 36.3 58 -5.1 22.9
16:55 1019 30.09 848 25.04 2.5 36.4 56 -5.4 22.3
17:00 1019 30.09 848 25.04 2.6 36.7 56 -5.3 22.5
17:05 1019 30.09 848 25.04 2.6 36.7 57 -5.2 22.7
17:10 1019 30.09 848 25.04 2.4 36.4 57 -5.2 22.7
17:15 1019 30.09 848 25.04 2.4 36.2 58 -5.1 22.7
17:20 1019 30.09 848 25.04 2.3 36.1 59 -5 23
17:25 1019 30.09 848 25.04 2.3 36.2 58 -5.2 22.7
17:30 1019 30.09 848 25.04 2.5 36.5 57 -5.1 22.8
17:35 1019 30.09 848 25.04 2.7 36.8 57 -5.1 22.8
17:40 1019 30.09 848 25.04 2.8 37 56 -5 23
17:45 1019 30.09 848 25.04 2.8 37 57 -5 23
17:50 1019 30.09 848 25.04 2.9 37.2 57 -4.8 23.4
17:55 1019 30.09 848 25.04 3.1 37.6 56 -4.8 23.3
18:00 1019 30.09 848 25.04 3 37.5 56 -5 23.1
18:05 1019 30.09 848 25.04 3.1 37.6 56 -4.9 23.2
18:10 1019 30.09 848 25.04 3 37.3 59 -4.3 24.3
18:15 1019 30.09 848 25.04 2.8 37.1 58 -4.6 23.7
18:20 1019 30.09 848 25.04 2.9 37.3 59 -4.2 24.4
18:25 1019 30.09 848 25.04 2.8 37.1 61 -3.9 25
18:30 1019 30.09 848 25.04 2.7 36.9 59 -4.5 23.9
18:35 1019 30.09 848 25.04 2.9 37.1 62 -3.6 25.5
18:40 1019 30.09 848 25.04 2.5 36.5 63 -3.8 25.2
18:45 1019 30.09 848 25.04 2.4 36.3 64 -3.8 25.2
18:50 1019 30.09 848 25.04 2.2 36 66 -3.6 25.6
18:55 1018 30.06 848 25.04 2.2 36 63 -4.1 24.7
19:00 1018 30.06 848 25.04 2.6 36.6 60 -4.4 24
19:05 1018 30.06 848 25.04 2.7 36.9 60 -4.3 24.2
19:10 1018 30.06 848 25.04 2.9 37.2 61 -4 24.9
19:15 1019 30.09 848 25.04 3 37.3 61 -3.8 25.2
19:20 1019 30.09 848 25.04 3 37.3 63 -3.5 25.7
19:25 1019 30.09 848 25.04 2.8 37 65 -3.1 26.4
19:30 1019 30.09 848 25.04 2.5 36.5 65 -3.5 25.8
19:35 1019 30.09 848 25.04 2.3 36.1 66 -3.4 26
19:40 1019 30.09 848 25.04 2.2 35.9 67 -3.3 26
19:45 1019 30.09 848 25.04 2.2 36 66 -3.4 25.8
19:50 1019 30.09 848 25.04 2.3 36.1 66 -3.3 26
19:55 1019 30.09 848 25.04 2.5 36.5 65 -3.5 25.7
20:00 1019 30.09 848 25.04 2.8 37 64 -3.4 25.9
20:05 1019 30.09 848 25.04 2.9 37.2 63 -3.4 25.8
20:10 1019 30.09 848 25.04 3 37.4 63 -3.4 25.9
20:15 1019 30.09 848 25.04 3 37.5 60 -3.9 25
20:20 1019 30.09 848 25.04 3.3 38 60 -3.8 25.2
20:25 1019 30.09 848 25.04 3.5 38.2 59 -3.8 25.1
20:30 1019 30.09 848 25.04 3.5 38.2 57 -4.3 24.2
20:35 1019 30.09 848 25.04 3.5 38.2 57 -4.2 24.5
20:40 1019 30.09 848 25.04 3.4 38.1 59 -3.9 25
20:45 1019 30.09 848 25.04 3.1 37.7 61 -3.7 25.4
20:50 1019 30.09 848 25.04 3.2 37.8 58 -4.2 24.4
20:55 1019 30.09 848 25.04 3.5 38.3 56 -4.4 24.2
21:00 1019 30.09 848 25.04 3.7 38.7 56 -4.3 24.3
21:05 1019 30.09 848 25.04 3.7 38.6 57 -4.1 24.6
21:10 1019 30.09 848 25.04 3.5 38.3 59 -3.9 25
21:15 1019 30.09 848 25.04 3.3 37.9 60 -3.7 25.3
21:20 1019 30.09 848 25.04 3 37.4 61 -3.7 25.3
21:25 1019 30.09 848 25.04 2.7 36.8 63 -3.7 25.4
21:30 1019 30.09 848 25.04 2.5 36.5 63 -3.9 25
21:35 1019 30.09 848 25.04 2.5 36.5 63 -3.8 25.1
21:40 1019 30.09 848 25.04 2.5 36.6 64 -3.6 25.5
21:45 1019 30.09 848 25.04 2.5 36.6 64 -3.5 25.6
21:50 1019 30.09 848 25.04 2.4 36.3 63 -3.8 25.1
21:55 1019 30.09 848 25.04 2.4 36.3 66 -3.2 26.2
22:00 1019 30.09 848 25.04 2.3 36.2 65 -3.5 25.7
22:05 1019 30.09 848 25.04 2.5 36.4 66 -3.3 26
22:10 1019 30.09 848 25.04 2.4 36.2 66 -3.4 25.9
22:15 1019 30.09 848 25.04 2.3 36.1 66 -3.4 25.9
22:20 1019 30.09 848 25.04 2.5 36.6 63 -3.7 25.3
22:25 1019 30.09 848 25.04 2.7 36.9 65 -3.3 26.1
22:30 1019 30.09 848 25.04 2.7 36.9 65 -3.3 26.1
22:35 1019 30.09 848 25.04 2.7 36.9 65 -3.1 26.4
22:40 1019 30.09 848 25.04 2.6 36.7 68 -2.8 27
22:45 1019 30.09 848 25.04 2.5 36.6 69 -2.6 27.3
22:50 1019 30.09 849 25.07 2.5 36.5 69 -2.6 27.3
22:55 1019 30.09 849 25.07 2.5 36.4 71 -2.3 27.8
23:00 1019 30.09 848 25.04 2.4 36.3 72 -2.1 28.2
23:05 1019 30.09 848 25.04 2.2 36 73 -2.1 28.3
23:10 1019 30.09 848 25.04 2.2 36 74 -1.9 28.6
23:15 1019 30.09 849 25.07 2.2 35.9 75 -1.8 28.8
23:20 1019 30.09 848 25.04 2.1 35.7 77 -1.6 29.2
23:25 1019 30.09 848 25.04 2 35.5 78 -1.4 29.4
23:30 1019 30.09 848 25.04 1.9 35.4 79 -1.4 29.4
23:35 1019 30.09 848 25.04 1.9 35.5 79 -1.4 29.5
23:40 1019 30.09 848 25.04 2 35.5 79 -1.3 29.7
23:45 1019 30.09 848 25.04 2 35.5 79 -1.2 29.8
23:50 1019 30.09 848 25.04 2 35.6 79 -1.2 29.8
23:55 1019 30.09 848 25.04 2 35.6 79 -1.2 29.8
24:00 1019 30.09 848 25.04 2.1 35.8 78 -1.3 29.7